This is the latest recevied weather packets stored in our database for station/object YO8PIC-5. If no packets are shown the sender has not sent any weather packets the latest 1 day(s).
| Time | Temp. | Humidity | Pressure | Rain* | Wind** | Luminosity | Snow |
|---|---|---|---|---|---|---|---|
| 1778046479 | 17.22° C | 43% | 1013.3 hPa | - | - | - | - |
| 1778045579 | 15.56° C | 43% | 1013.3 hPa | - | - | - | - |
| 1778044679 | 15° C | 47% | 1013.2 hPa | - | - | - | - |
| 1778042873 | 10.56° C | 64% | 1013.1 hPa | - | - | - | - |
| 1778041968 | 10° C | 67% | 1013.2 hPa | - | - | - | - |
| 1778041065 | 8.89° C | 70% | 1013.2 hPa | - | - | - | - |
| 1778040190 | 8.33° C | 72% | 1013.1 hPa | - | - | - | - |
| 1778039290 | 7.78° C | 75% | 1013.1 hPa | - | - | - | - |
| 1778038390 | 6.67° C | 79% | 1013 hPa | - | - | - | - |
| 1778037490 | 7.22° C | 74% | 1012.8 hPa | - | - | - | - |
| 1778035689 | 6.67° C | 77% | 1012.6 hPa | - | - | - | - |
| 1778034789 | 6.11° C | 79% | 1012.5 hPa | - | - | - | - |
| 1778033889 | 6.67° C | 78% | 1012.4 hPa | - | - | - | - |
| 1778032989 | 6.11° C | 81% | 1012.4 hPa | - | - | - | - |
| 1778032088 | 6.67° C | 79% | 1012.4 hPa | - | - | - | - |
| 1778031188 | 7.22° C | 80% | 1012.4 hPa | - | - | - | - |
| 1778030288 | 8.33° C | 76% | 1012.3 hPa | - | - | - | - |
| 1778029388 | 8.33° C | 79% | 1012.3 hPa | - | - | - | - |
| 1778028487 | 8.33° C | 80% | 1012.3 hPa | - | - | - | - |
| 1778027587 | 8.33° C | 80% | 1012.1 hPa | - | - | - | - |
| 1778023981 | 9.44° C | 78% | 1012 hPa | - | - | - | - |
| 1778023081 | 10° C | 75% | 1012 hPa | - | - | - | - |
| 1778019480 | 11.11° C | 70% | 1012 hPa | - | - | - | - |
| 1778018580 | 11.67° C | 69% | 1011.9 hPa | - | - | - | - |
| 1778014979 | 12.78° C | 78% | 1011.6 hPa | - | - | - | - |
* Rain since midnight (hover to see other rain measurements)
** Current wind speed in m/s (hover to see current wind gust speed)